createdAt,value
2019-06-08T03:49:10.688Z,2.58
2019-06-08T03:54:21.299Z,1.50
2019-06-08T03:59:30.287Z,2.60
2019-06-08T04:04:40.283Z,2.77
2019-06-08T04:07:15.856Z,2.83
2019-06-08T04:09:50.835Z,7.87
2019-06-08T04:12:25.782Z,1.50
2019-06-08T04:15:00.790Z,1.60
2019-06-08T04:20:12.091Z,2.52
2019-06-08T04:22:47.497Z,3.65
2019-06-08T04:27:56.516Z,2.15
2019-06-08T04:33:05.494Z,2.40
2019-06-08T04:35:42.555Z,3.50
2019-06-08T04:38:17.053Z,2.83
2019-06-08T04:43:26.405Z,2.58
2019-06-08T04:46:01.397Z,6.30
2019-06-08T04:51:10.398Z,5.25
2019-06-08T04:56:22.031Z,3.25
2019-06-08T05:01:31.137Z,2.80
2019-06-08T05:06:41.036Z,2.20
2019-06-08T05:09:16.070Z,3.72
2019-06-08T05:11:51.049Z,3.17
2019-06-08T05:14:28.628Z,6.72
2019-06-08T05:17:03.616Z,3.37
2019-06-08T05:22:14.169Z,5.10
2019-06-08T05:27:24.870Z,2.35
2019-06-08T05:29:59.829Z,2.60
2019-06-08T05:32:34.808Z,6.62
2019-06-08T05:37:44.076Z,6.30
2019-06-08T05:42:53.251Z,2.05
2019-06-08T05:48:05.273Z,3.70
2019-06-08T05:50:54.953Z,3.40
2019-06-08T05:53:16.861Z,4.62
2019-06-08T05:58:25.863Z,2.50
2019-06-08T06:01:01.901Z,3.33
2019-06-08T06:06:10.903Z,4.47
2019-06-08T06:08:46.658Z,2.72
2019-06-08T06:11:22.729Z,2.40
2019-06-08T06:16:31.725Z,2.45
2019-06-08T06:21:40.975Z,2.50
2019-06-08T06:24:16.951Z,3.30
2019-06-08T06:29:26.550Z,1.72
2019-06-08T06:34:35.541Z,4.10
2019-06-08T06:39:45.853Z,2.58
2019-06-08T06:42:24.432Z,2.08
2019-06-08T06:44:57.527Z,2.55
2019-06-08T06:50:07.041Z,3.37
2019-06-08T06:52:46.682Z,2.62
2019-06-08T06:55:25.095Z,2.70
2019-06-08T06:57:58.685Z,1.57
2019-06-08T07:00:34.050Z,2.47
2019-06-08T07:03:10.050Z,3.75
2019-06-08T07:05:46.097Z,3.30
2019-06-08T07:08:22.181Z,3.17
2019-06-08T07:10:58.468Z,3.33
2019-06-08T07:13:33.544Z,3.65
2019-06-08T07:18:44.279Z,0.90
2019-06-08T07:21:19.432Z,8.85
2019-06-08T07:23:56.138Z,1.20
2019-06-08T07:26:31.344Z,5.47
2019-06-08T07:31:40.637Z,6.17
2019-06-08T07:34:15.736Z,2.90
2019-06-08T07:36:51.301Z,1.90
2019-06-08T07:39:26.291Z,7.72
2019-06-08T07:44:37.285Z,1.70
2019-06-08T07:47:12.675Z,3.30
2019-06-08T07:49:49.200Z,4.25
2019-06-08T07:52:24.322Z,2.83
2019-06-08T07:54:59.407Z,2.80
2019-06-08T07:57:34.384Z,3.72
2019-06-08T08:00:10.044Z,1.40
2019-06-08T08:02:45.069Z,2.70
2019-06-08T08:05:20.064Z,2.30
2019-06-08T08:07:55.115Z,1.52
2019-06-08T08:10:30.075Z,1.57
2019-06-08T08:13:06.253Z,2.33
2019-06-08T08:15:41.289Z,2.33
2019-06-08T08:18:16.292Z,2.52
2019-06-08T08:20:52.814Z,3.70
2019-06-08T08:23:28.177Z,2.62
2019-06-08T08:26:03.086Z,6.62
2019-06-08T08:28:38.076Z,3.37
2019-06-08T08:31:15.257Z,4.75
2019-06-08T08:33:52.538Z,5.72
2019-06-08T08:36:29.091Z,4.37
2019-06-08T08:39:09.154Z,5.87
2019-06-08T08:41:44.510Z,4.35
2019-06-08T08:44:20.577Z,1.95
2019-06-08T08:46:56.992Z,3.90
2019-06-08T08:49:32.430Z,2.40
2019-06-08T08:52:08.784Z,8.48
2019-06-08T08:54:44.137Z,3.50
2019-06-08T08:57:19.378Z,3.58
2019-06-08T08:59:56.275Z,6.35
2019-06-08T09:02:31.287Z,2.65
2019-06-08T09:05:08.668Z,4.25
2019-06-08T09:07:44.325Z,2.05
2019-06-08T09:10:20.176Z,2.50
2019-06-08T09:12:56.442Z,2.55
2019-06-08T09:15:31.962Z,3.27
2019-06-08T09:18:08.080Z,2.92
2019-06-08T09:20:43.335Z,2.20
2019-06-08T09:23:21.580Z,4.72
2019-06-08T09:26:00.446Z,1.95
2019-06-08T09:28:31.616Z,2.83
2019-06-08T09:31:08.711Z,2.67
2019-06-08T09:33:53.321Z,2.42
2019-06-08T09:36:20.222Z,3.17
2019-06-08T09:38:59.596Z,2.67
2019-06-08T09:41:31.813Z,3.50
2019-06-08T09:44:08.709Z,8.05
2019-06-08T09:46:43.465Z,5.62
2019-06-08T09:49:18.956Z,2.70
2019-06-08T09:51:55.352Z,2.60
2019-06-08T09:54:30.821Z,3.10
2019-06-08T09:57:08.804Z,3.20
2019-06-08T09:59:43.369Z,2.27
2019-06-08T10:02:18.632Z,7.30
2019-06-08T10:04:54.419Z,2.33
2019-06-08T10:07:31.356Z,4.85
2019-06-08T10:10:09.610Z,3.20
2019-06-08T10:12:43.950Z,3.40
2019-06-08T10:15:19.691Z,3.17
2019-06-08T10:17:54.906Z,6.50
2019-06-08T10:20:30.912Z,2.27
2019-06-08T10:23:24.407Z,2.95
2019-06-08T10:25:44.136Z,4.53
2019-06-08T10:28:21.792Z,3.45
2019-06-08T10:30:59.658Z,16.17
2019-06-08T10:33:32.990Z,4.75
2019-06-08T10:36:12.251Z,2.65
2019-06-08T10:38:47.773Z,4.53
2019-06-08T10:41:21.975Z,3.27
2019-06-08T10:43:57.461Z,4.70
2019-06-08T10:46:32.808Z,2.65
2019-06-08T10:49:11.864Z,3.12
2019-06-08T10:51:45.110Z,2.02
2019-06-08T10:54:20.363Z,1.92
2019-06-08T10:56:57.473Z,2.37
2019-06-08T10:59:32.680Z,3.90
2019-06-08T11:02:13.460Z,2.95
2019-06-08T11:04:44.930Z,5.90
2019-06-08T11:07:19.946Z,3.83
2019-06-08T11:09:55.072Z,3.33
2019-06-08T11:12:30.172Z,4.83
2019-06-08T11:15:09.269Z,7.65
2019-06-08T11:17:42.942Z,2.90
2019-06-08T11:20:17.987Z,2.42
2019-06-08T11:22:53.038Z,3.05
2019-06-08T11:25:28.221Z,4.53
2019-06-08T11:28:03.823Z,9.48
2019-06-08T11:30:38.942Z,4.08
2019-06-08T11:33:15.083Z,4.78
2019-06-08T11:35:50.077Z,2.72
2019-06-08T11:38:25.095Z,5.10
2019-06-08T11:41:00.978Z,2.67
2019-06-08T11:43:38.114Z,2.55
2019-06-08T11:46:13.254Z,4.08
2019-06-08T11:48:48.547Z,4.42
2019-06-08T11:51:29.428Z,3.65
2019-06-08T11:54:01.105Z,7.95
2019-06-08T11:56:37.595Z,3.65
2019-06-08T11:59:14.432Z,3.17
2019-06-08T12:01:50.536Z,4.50
2019-06-08T12:04:25.564Z,3.95
2019-06-08T12:07:00.549Z,5.75
2019-06-08T12:09:35.540Z,3.62
2019-06-08T12:12:16.176Z,3.02
2019-06-08T12:14:47.678Z,1.92
2019-06-08T12:17:23.251Z,2.05
2019-06-08T12:19:58.306Z,4.65
2019-06-08T12:22:33.316Z,9.95
2019-06-08T12:25:08.512Z,6.05
2019-06-08T12:27:43.592Z,11.85
2019-06-08T12:30:25.911Z,11.55
2019-06-08T12:32:58.149Z,12.53
2019-06-08T12:35:33.196Z,10.08
2019-06-08T12:38:09.924Z,10.75
2019-06-08T12:40:44.947Z,8.18
2019-06-08T12:43:21.266Z,5.83
2019-06-08T12:45:58.059Z,11.75
2019-06-08T12:48:33.178Z,11.48
2019-06-08T12:51:10.538Z,8.15
2019-06-08T12:53:44.844Z,16.67
2019-06-08T12:56:23.931Z,11.22
2019-06-08T12:58:57.914Z,9.30
2019-06-08T13:01:33.160Z,8.75
2019-06-08T13:04:09.627Z,8.03
2019-06-08T13:06:44.734Z,8.15
2019-06-08T13:09:20.667Z,11.18
2019-06-08T13:11:57.177Z,6.12
2019-06-08T13:14:32.674Z,10.58
2019-06-08T13:17:08.716Z,5.55
2019-06-08T13:19:44.492Z,5.20
2019-06-08T13:22:25.912Z,7.85
2019-06-08T13:24:56.253Z,3.72
2019-06-08T13:27:31.205Z,5.00
2019-06-08T13:30:07.530Z,8.55
2019-06-08T13:32:42.700Z,6.50
2019-06-08T13:35:20.728Z,7.15
2019-06-08T13:37:57.113Z,8.35
2019-06-08T13:40:31.412Z,6.58
2019-06-08T13:43:08.128Z,5.30
2019-06-08T13:45:43.071Z,10.15
2019-06-08T13:48:18.957Z,6.15
2019-06-08T13:50:54.792Z,9.25
2019-06-08T13:53:31.816Z,7.85
2019-06-08T13:56:07.821Z,9.88
2019-06-08T13:58:43.053Z,6.83
2019-06-08T14:01:18.005Z,11.43
2019-06-08T14:03:53.445Z,4.25
2019-06-08T14:06:28.641Z,5.08
2019-06-08T14:09:04.103Z,7.70
2019-06-08T14:11:39.450Z,7.28
2019-06-08T14:14:14.924Z,10.35
2019-06-08T14:16:50.661Z,7.33
2019-06-08T14:19:26.265Z,10.20
2019-06-08T14:22:02.447Z,8.05
2019-06-08T14:24:37.825Z,5.47
2019-06-08T14:27:13.906Z,6.83
2019-06-08T14:29:51.329Z,8.18
2019-06-08T14:32:25.968Z,5.83
2019-06-08T14:35:02.926Z,5.95
2019-06-08T14:37:38.076Z,7.75
2019-06-08T14:40:13.380Z,6.80
2019-06-08T14:42:48.730Z,8.00
2019-06-08T14:45:24.702Z,8.15
2019-06-08T14:47:59.812Z,8.88
2019-06-08T14:50:40.409Z,5.72
2019-06-08T14:53:12.033Z,3.58
2019-06-08T14:55:49.981Z,5.15
2019-06-08T14:58:27.315Z,7.85
2019-06-08T15:01:00.210Z,5.80
2019-06-08T15:03:35.162Z,3.85
2019-06-08T15:06:10.146Z,8.18
2019-06-08T15:08:45.160Z,8.20
2019-06-08T15:11:21.257Z,5.65
2019-06-08T15:13:58.054Z,5.78
2019-06-08T15:16:32.956Z,4.92
2019-06-08T15:19:08.111Z,3.08
2019-06-08T15:21:43.145Z,4.30
2019-06-08T15:24:18.678Z,4.75
2019-06-08T15:26:53.747Z,7.90
2019-06-08T15:29:30.696Z,6.95
2019-06-08T15:32:05.297Z,9.55
2019-06-08T15:34:41.935Z,3.80
2019-06-08T15:37:18.566Z,7.35
2019-06-08T15:39:53.801Z,7.42
2019-06-08T15:42:30.490Z,7.85
2019-06-08T15:45:08.617Z,8.75
2019-06-08T15:47:43.754Z,8.05
2019-06-08T15:50:18.864Z,8.58
2019-06-08T15:52:53.830Z,4.78
2019-06-08T15:55:31.361Z,6.60
2019-06-08T15:58:05.528Z,3.33
2019-06-08T16:00:40.672Z,6.72
2019-06-08T16:03:15.830Z,6.42
2019-06-08T16:05:50.815Z,7.00
2019-06-08T16:08:26.194Z,4.47
2019-06-08T16:11:01.425Z,6.92
2019-06-08T16:13:36.541Z,8.30
2019-06-08T16:16:11.491Z,8.55
2019-06-08T16:18:46.460Z,5.50
2019-06-08T16:21:23.115Z,4.90
2019-06-08T16:23:58.128Z,6.35
2019-06-08T16:26:33.784Z,3.47
2019-06-08T16:29:08.887Z,5.33
2019-06-08T16:31:43.851Z,6.50
2019-06-08T16:34:18.830Z,8.43
2019-06-08T16:36:53.869Z,4.72
2019-06-08T16:39:28.867Z,3.85
2019-06-08T16:42:03.865Z,3.83
2019-06-08T16:44:38.820Z,7.28
2019-06-08T16:47:13.857Z,6.75
2019-06-08T16:49:49.884Z,3.65
2019-06-08T16:52:24.854Z,5.72
2019-06-08T16:54:59.819Z,3.80
2019-06-08T16:57:37.848Z,3.77
2019-06-08T17:00:30.327Z,4.60
2019-06-08T17:02:48.377Z,6.62
2019-06-08T17:05:23.324Z,4.58
2019-06-08T17:07:58.299Z,4.20
2019-06-08T17:10:34.580Z,5.15
2019-06-08T17:13:11.274Z,7.17
2019-06-08T17:15:46.644Z,5.17
2019-06-08T17:18:21.685Z,5.67
2019-06-08T17:20:56.635Z,2.33
2019-06-08T17:23:32.410Z,9.43
2019-06-08T17:26:08.418Z,2.58
2019-06-08T17:28:43.415Z,8.50
2019-06-08T17:31:18.379Z,5.20
2019-06-08T17:33:53.368Z,4.28
2019-06-08T17:36:28.479Z,3.83
2019-06-08T17:39:05.254Z,4.60
2019-06-08T17:41:42.576Z,8.20
2019-06-08T17:44:17.780Z,3.98
2019-06-08T17:46:52.984Z,5.95
2019-06-08T17:49:27.980Z,4.12
2019-06-08T17:52:03.246Z,3.17
2019-06-08T17:54:39.044Z,3.67
2019-06-08T17:57:14.188Z,6.03
2019-06-08T17:59:49.212Z,2.40
2019-06-08T18:02:28.146Z,3.50
2019-06-08T18:05:02.053Z,3.20
2019-06-08T18:07:39.049Z,6.17
2019-06-08T18:10:14.672Z,5.30
2019-06-08T18:12:50.114Z,3.75
2019-06-08T18:15:28.168Z,4.05
2019-06-08T18:18:03.153Z,4.40
2019-06-08T18:20:40.477Z,7.42
2019-06-08T18:23:17.196Z,7.22
2019-06-08T18:25:53.004Z,4.45
2019-06-08T18:28:28.292Z,6.15
2019-06-08T18:31:04.769Z,3.60
2019-06-08T18:33:43.389Z,3.45
2019-06-08T18:36:17.431Z,5.00
2019-06-08T18:38:52.578Z,5.15
2019-06-08T18:41:27.617Z,1.65
2019-06-08T18:44:02.624Z,5.55
2019-06-08T18:46:39.355Z,7.70
2019-06-08T18:49:14.923Z,3.52
2019-06-08T18:51:52.787Z,4.30
2019-06-08T18:54:28.167Z,7.03
2019-06-08T18:57:05.992Z,3.02
2019-06-08T18:59:44.357Z,2.67
2019-06-08T19:02:18.627Z,3.92
2019-06-08T19:04:57.208Z,7.78
2019-06-08T19:07:32.340Z,7.37
2019-06-08T19:10:08.606Z,4.65
2019-06-08T19:12:44.788Z,7.97
2019-06-08T19:15:24.100Z,8.50
2019-06-08T19:17:59.441Z,8.08
2019-06-08T19:20:35.086Z,5.40
2019-06-08T19:23:12.683Z,3.45
2019-06-08T19:25:49.419Z,4.45
2019-06-08T19:28:35.774Z,7.25
2019-06-08T19:31:02.011Z,3.40
2019-06-08T19:33:38.937Z,5.15
2019-06-08T19:36:16.997Z,4.30
2019-06-08T19:38:54.759Z,4.92
2019-06-08T19:41:29.899Z,4.58
2019-06-08T19:44:07.551Z,11.18
2019-06-08T19:46:47.598Z,8.33
2019-06-08T19:49:23.708Z,9.85
2019-06-08T19:51:59.352Z,15.03
2019-06-08T19:54:37.703Z,8.83
2019-06-08T19:57:12.389Z,11.08
2019-06-08T19:59:48.039Z,12.63
2019-06-08T20:02:23.583Z,12.30
2019-06-08T20:04:59.151Z,21.62
2019-06-08T20:07:37.602Z,21.50
2019-06-08T20:10:14.131Z,16.35
2019-06-08T20:12:50.974Z,14.63
2019-06-08T20:15:28.687Z,16.20
2019-06-08T20:18:04.115Z,9.15
2019-06-08T20:20:41.940Z,10.72
2019-06-08T20:23:18.132Z,12.45
2019-06-08T20:25:54.764Z,13.88
2019-06-08T20:28:30.511Z,7.05
2019-06-08T20:31:07.417Z,24.02
2019-06-08T20:33:43.855Z,12.28
2019-06-08T20:36:19.399Z,6.17
2019-06-08T20:38:54.843Z,8.68
2019-06-08T20:41:30.196Z,4.10
2019-06-08T20:44:08.283Z,3.83
2019-06-08T20:46:42.708Z,6.70
2019-06-08T20:49:19.519Z,7.28
2019-06-08T20:51:57.037Z,12.05
2019-06-08T20:54:36.615Z,15.58
2019-06-08T20:57:10.851Z,15.38
2019-06-08T20:59:48.134Z,14.15
2019-06-08T21:02:28.219Z,15.30
2019-06-08T21:05:00.643Z,9.83
2019-06-08T21:07:35.984Z,11.15
2019-06-08T21:10:11.427Z,12.33
2019-06-08T21:12:49.602Z,12.33
2019-06-08T21:15:27.260Z,9.65
2019-06-08T21:18:02.053Z,8.00
2019-06-08T21:20:37.753Z,11.55
2019-06-08T21:23:13.560Z,9.20
2019-06-08T21:25:50.738Z,6.33
2019-06-08T21:28:27.979Z,7.33
